Time;durP1;ratioP1;P1;durP2;ratioP2;P2;SDS_P1;SDS_P2;PMS_P1;PMS_P2;Temp;Humidity;BMP_temperature;BMP_pressure;BME280_temperature;BME280_humidity;BME280_pressure;Samples;Min_cycle;Max_cycle;Signal;HPM_P1;HPM_P2
2023/03/12 00:00:37;;;;;;;3.38;2.95;;;1.20;99.90;;;;;;5155207;27;20561;-76
2023/03/12 00:03:03;;;;;;;3.72;3.40;;;0.90;99.90;;;;;;5154947;27;20035;-76
2023/03/12 00:05:28;;;;;;;3.83;3.42;;;0.90;99.90;;;;;;5136150;27;20053;-76
2023/03/12 00:07:58;;;;;;;3.53;3.22;;;0.90;99.90;;;;;;5155158;27;20047;-76
2023/03/12 00:10:24;;;;;;;4.53;4.05;;;0.80;99.90;;;;;;5155032;27;20116;-76
2023/03/12 00:12:50;;;;;;;4.50;3.72;;;0.90;99.90;;;;;;5136407;27;20079;-76
2023/03/12 00:15:16;;;;;;;5.80;3.40;;;0.70;99.90;;;;;;5154423;27;20050;-76
2023/03/12 00:17:42;;;;;;;5.22;3.45;;;0.60;99.90;;;;;;5154445;27;20053;-76
2023/03/12 00:20:08;;;;;;;4.13;3.70;;;0.60;99.90;;;;;;5154543;27;20049;-76
2023/03/12 00:22:34;;;;;;;3.97;3.58;;;0.50;99.90;;;;;;5154800;27;20035;-76
2023/03/12 00:25:00;;;;;;;5.03;3.60;;;0.50;99.90;;;;;;5154778;27;20472;-76
2023/03/12 00:27:26;;;;;;;6.22;3.10;;;0.40;99.90;;;;;;5154535;27;20118;-76
2023/03/12 00:29:52;;;;;;;5.30;3.42;;;0.40;99.90;;;;;;5155192;27;20043;-75
2023/03/12 00:32:19;;;;;;;4.20;3.45;;;0.60;99.90;;;;;;5154603;27;20460;-76
2023/03/12 00:34:53;;;;;;;5.03;3.72;;;0.40;99.90;;;;;;5154576;27;20051;-75
2023/03/12 00:37:19;;;;;;;8.73;4.45;;;0.50;99.90;;;;;;5136652;27;20042;-75
2023/03/12 00:39:45;;;;;;;5.90;3.95;;;0.50;99.90;;;;;;5154474;27;20039;-75
2023/03/12 00:42:11;;;;;;;5.25;4.18;;;0.50;99.90;;;;;;5118976;27;20046;-75
2023/03/12 00:44:36;;;;;;;4.82;4.43;;;1.70;99.90;;;;;;5154959;27;20035;-75
2023/03/12 00:47:02;;;;;;;4.38;3.80;;;0.60;99.90;;;;;;5135839;27;20498;-75
2023/03/12 00:49:28;;;;;;;9.05;4.47;;;0.50;99.90;;;;;;5154250;27;20054;-76
2023/03/12 00:51:54;;;;;;;4.50;4.10;;;0.50;99.90;;;;;;5154156;27;20035;-75
2023/03/12 00:54:20;;;;;;;6.00;4.93;;;0.60;99.90;;;;;;5153732;27;20126;-75
2023/03/12 00:56:46;;;;;;;6.70;4.70;;;1.40;99.90;;;;;;5154088;27;20082;-75
2023/03/12 00:59:15;;;;;;;7.68;4.82;;;0.50;99.90;;;;;;5153802;27;20089;-75
2023/03/12 01:01:41;;;;;;;5.38;4.22;;;0.50;99.90;;;;;;5153824;27;20090;-75
2023/03/12 01:04:07;;;;;;;4.93;4.03;;;0.50;99.90;;;;;;5136095;27;20039;-75
2023/03/12 01:06:33;;;;;;;6.95;4.88;;;0.90;99.90;;;;;;5153976;27;20043;-76
2023/03/12 01:09:01;;;;;;;6.85;4.55;;;0.50;99.90;;;;;;5153861;27;20050;-75
2023/03/12 01:11:27;;;;;;;5.57;4.32;;;0.50;99.90;;;;;;5136309;27;20178;-76
2023/03/12 01:13:53;;;;;;;5.20;4.70;;;0.60;99.90;;;;;;5153875;27;20042;-75
2023/03/12 01:16:18;;;;;;;5.20;4.43;;;0.60;99.90;;;;;;5154108;27;20053;-75
2023/03/12 01:18:44;;;;;;;8.48;5.13;;;0.50;99.90;;;;;;5154084;27;20047;-76
2023/03/12 01:21:10;;;;;;;7.15;4.63;;;1.20;99.90;;;;;;5154480;27;20050;-75
2023/03/12 01:23:37;;;;;;;6.18;4.60;;;0.60;99.90;;;;;;5136168;27;20042;-75
2023/03/12 01:26:03;;;;;;;6.18;4.15;;;0.50;99.90;;;;;;5118966;27;20050;-76
2023/03/12 01:28:28;;;;;;;5.68;4.40;;;0.40;99.90;;;;;;5135494;27;20479;-75
2023/03/12 01:30:54;;;;;;;6.30;4.47;;;0.40;99.90;;;;;;5136062;27;20085;-76
2023/03/12 01:33:21;;;;;;;6.22;4.57;;;0.60;99.90;;;;;;5158252;27;20042;-75
2023/03/12 01:35:47;;;;;;;8.98;5.07;;;0.30;99.90;;;;;;5158255;27;20042;-75
2023/03/12 01:38:14;;;;;;;5.40;4.45;;;0.20;99.90;;;;;;5158346;27;20074;-75
2023/03/12 01:40:41;;;;;;;6.70;5.22;;;0.20;99.90;;;;;;5158912;27;20134;-76
2023/03/12 01:43:28;;;;;;;7.65;4.95;;;0.10;99.90;;;;;;5122865;27;20051;-75
2023/03/12 01:46:30;;;;;;;5.60;4.20;;;0.00;99.90;;;;;;5158492;27;20054;-75
2023/03/12 01:49:23;;;;;;;4.80;4.18;;;0.00;99.90;;;;;;5158361;27;20042;-76
2023/03/12 01:51:57;;;;;;;7.13;4.20;;;0.00;99.90;;;;;;5122988;27;20046;-75
2023/03/12 01:54:36;;;;;;;5.78;4.53;;;0.00;99.90;;;;;;5158674;27;20083;-76
2023/03/12 01:57:05;;;;;;;9.00;4.53;;;0.00;99.90;;;;;;5158493;27;20127;-76
2023/03/12 01:59:45;;;;;;;5.82;4.95;;;0.00;99.90;;;;;;5157928;27;20113;-76
2023/03/12 02:02:13;;;;;;;4.40;4.03;;;0.20;99.90;;;;;;5139570;27;20068;-75
2023/03/12 02:04:40;;;;;;;7.70;4.45;;;0.30;99.90;;;;;;5158066;27;20038;-75
2023/03/12 02:07:16;;;;;;;4.03;3.72;;;0.40;99.90;;;;;;5157450;27;20050;-75
2023/03/12 02:09:45;;;;;;;5.18;4.60;;;0.80;99.90;;;;;;5157699;27;20086;-76
2023/03/12 02:12:11;;;;;;;6.05;3.97;;;1.60;99.90;;;;;;5157402;27;20457;-76
2023/03/12 02:14:38;;;;;;;4.55;3.45;;;0.70;99.90;;;;;;5157370;27;20053;-76
2023/03/12 02:17:04;;;;;;;5.30;3.78;;;1.10;99.90;;;;;;5157198;27;20501;-76
2023/03/12 02:19:58;;;;;;;5.78;4.43;;;0.70;99.90;;;;;;5157181;27;20043;-76
2023/03/12 02:22:24;;;;;;;5.15;4.63;;;0.70;99.90;;;;;;5157203;27;20035;-75
2023/03/12 02:25:00;;;;;;;5.57;4.57;;;0.60;99.90;;;;;;5157665;27;20159;-76
2023/03/12 02:27:27;;;;;;;4.85;4.18;;;0.70;99.90;;;;;;5157382;27;20039;-75
2023/03/12 02:29:52;;;;;;;5.80;4.13;;;1.30;99.90;;;;;;5157077;27;20058;-76
2023/03/12 02:32:30;;;;;;;5.30;3.90;;;0.70;99.90;;;;;;5138694;27;20046;-75
2023/03/12 02:34:56;;;;;;;4.80;4.20;;;1.10;99.90;;;;;;5156990;27;20572;-76
2023/03/12 02:37:22;;;;;;;6.72;3.70;;;0.80;99.90;;;;;;5157147;27;20054;-75
2023/03/12 02:39:59;;;;;;;5.20;3.88;;;0.80;99.90;;;;;;5138677;27;20043;-76
2023/03/12 02:42:25;;;;;;;5.75;4.68;;;1.40;99.90;;;;;;5156234;27;20092;-76
2023/03/12 02:44:51;;;;;;;4.88;4.03;;;0.80;99.90;;;;;;5156333;27;20042;-76
2023/03/12 02:47:16;;;;;;;6.38;4.43;;;0.90;99.90;;;;;;5156627;27;20050;-75
2023/03/12 02:49:43;;;;;;;6.63;4.45;;;0.90;99.90;;;;;;5138370;27;20051;-76
2023/03/12 02:52:09;;;;;;;5.03;3.85;;;0.90;99.90;;;;;;5137730;27;20368;-75
2023/03/12 02:54:35;;;;;;;5.10;4.18;;;1.00;99.90;;;;;;5156965;27;20047;-76
2023/03/12 02:57:01;;;;;;;6.47;3.83;;;1.50;99.90;;;;;;5156913;27;20141;-76
2023/03/12 02:59:26;;;;;;;5.60;4.07;;;1.30;99.90;;;;;;5156827;27;20061;-76
2023/03/12 03:01:58;;;;;;;4.80;3.70;;;1.20;99.90;;;;;;5156828;27;20043;-76
2023/03/12 03:04:24;;;;;;;3.97;2.95;;;1.40;99.90;;;;;;5138400;27;20054;-76
2023/03/12 03:06:50;;;;;;;4.72;3.65;;;1.30;99.90;;;;;;5156300;27;20043;-76
2023/03/12 03:09:17;;;;;;;4.03;3.50;;;1.30;99.90;;;;;;5156323;27;20046;-76
2023/03/12 03:11:42;;;;;;;5.55;4.20;;;1.40;99.90;;;;;;5137953;27;20375;-76
2023/03/12 03:14:09;;;;;;;7.38;3.75;;;1.30;99.90;;;;;;5156326;27;20047;-76
2023/03/12 03:16:35;;;;;;;7.95;4.10;;;1.30;99.90;;;;;;5156040;27;20047;-76
2023/03/12 03:19:00;;;;;;;5.80;4.05;;;1.30;99.90;;;;;;5156471;27;20053;-76
2023/03/12 03:21:26;;;;;;;4.80;3.33;;;1.40;99.90;;;;;;5156341;27;20038;-75
2023/03/12 03:23:52;;;;;;;5.60;3.72;;;1.40;99.90;;;;;;5156176;27;20043;-76
2023/03/12 03:26:20;;;;;;;4.30;3.28;;;1.80;99.90;;;;;;5137180;27;20043;-76
2023/03/12 03:28:46;;;;;;;6.55;3.63;;;1.60;99.90;;;;;;5155575;27;20038;-75
2023/03/12 03:31:12;;;;;;;4.13;3.38;;;1.60;99.90;;;;;;5155482;27;20133;-76
2023/03/12 03:33:38;;;;;;;5.97;3.30;;;1.50;99.90;;;;;;5156215;27;20050;-75
2023/03/12 03:36:06;;;;;;;5.57;3.53;;;1.40;99.90;;;;;;5156030;27;20054;-76
2023/03/12 03:38:33;;;;;;;4.47;3.30;;;1.40;99.90;;;;;;5156083;27;20447;-76
2023/03/12 03:40:59;;;;;;;5.40;3.08;;;1.40;99.90;;;;;;5155189;27;20470;-76
2023/03/12 03:43:25;;;;;;;5.75;3.53;;;1.40;99.90;;;;;;5155913;27;20078;-76
2023/03/12 03:46:00;;;;;;;4.10;3.42;;;1.40;99.90;;;;;;5155569;27;20041;-76
2023/03/12 03:48:26;;;;;;;4.18;3.65;;;1.40;99.90;;;;;;5155259;27;20512;-77
2023/03/12 03:50:51;;;;;;;7.75;3.70;;;1.40;99.90;;;;;;5155099;27;20035;-75
2023/03/12 03:53:20;;;;;;;4.60;3.40;;;1.40;99.90;;;;;;5155430;27;20035;-76
2023/03/12 03:55:45;;;;;;;4.10;3.72;;;1.30;99.90;;;;;;5154768;27;20050;-76
2023/03/12 03:58:11;;;;;;;6.38;4.07;;;1.50;99.90;;;;;;5155173;27;20506;-76
2023/03/12 04:00:37;;;;;;;4.28;3.85;;;1.40;99.90;;;;;;5136561;27;20043;-76
2023/03/12 04:03:03;;;;;;;5.05;4.05;;;1.40;99.90;;;;;;5137030;27;20050;-76
2023/03/12 04:05:29;;;;;;;5.65;3.70;;;1.40;99.90;;;;;;5155177;27;20115;-76
2023/03/12 04:07:55;;;;;;;5.32;3.85;;;1.40;99.90;;;;;;5155244;27;20070;-76
2023/03/12 04:10:22;;;;;;;5.13;4.47;;;1.50;99.90;;;;;;5155057;27;20046;-76
2023/03/12 04:12:48;;;;;;;7.55;4.53;;;1.50;99.90;;;;;;5155063;27;20489;-76
2023/03/12 04:15:14;;;;;;;5.80;4.15;;;1.80;99.90;;;;;;5154532;27;20090;-76
2023/03/12 04:17:39;;;;;;;5.60;4.25;;;1.60;99.90;;;;;;5154917;27;20127;-76
2023/03/12 04:20:08;;;;;;;5.38;3.80;;;2.80;99.90;;;;;;5155342;27;20363;-77
2023/03/12 04:22:34;;;;;;;5.43;4.10;;;1.70;99.90;;;;;;5154813;27;20053;-76
2023/03/12 04:25:00;;;;;;;11.90;3.80;;;1.70;99.90;;;;;;5155299;27;20085;-76
2023/03/12 04:27:26;;;;;;;6.85;4.35;;;1.70;99.90;;;;;;5136710;27;20058;-76
2023/03/12 04:29:52;;;;;;;4.65;4.07;;;1.80;99.90;;;;;;5154395;27;20468;-76
2023/03/12 04:32:17;;;;;;;6.10;4.25;;;1.80;99.90;;;;;;5154591;27;20042;-77
2023/03/12 04:34:43;;;;;;;4.78;4.32;;;1.80;99.90;;;;;;5154613;27;20043;-76
2023/03/12 04:37:15;;;;;;;6.25;4.10;;;1.80;99.90;;;;;;5154768;27;20067;-76
2023/03/12 04:39:42;;;;;;;5.80;3.90;;;1.80;99.90;;;;;;5154862;27;20057;-77
2023/03/12 04:42:08;;;;;;;5.28;4.03;;;1.80;99.90;;;;;;5119407;27;20388;-76
2023/03/12 04:44:35;;;;;;;7.15;3.92;;;2.20;99.90;;;;;;5154851;27;20074;-76
2023/03/12 04:47:01;;;;;;;7.20;4.25;;;2.70;99.90;;;;;;5154824;27;20051;-76
2023/03/12 04:49:27;;;;;;;6.63;4.30;;;1.80;99.90;;;;;;5154821;27;20122;-76
2023/03/12 04:51:53;;;;;;;7.55;4.88;;;2.20;99.90;;;;;;5154621;27;20123;-76
2023/03/12 04:54:22;;;;;;;8.35;4.50;;;1.90;99.90;;;;;;5154727;27;20592;-76
2023/03/12 04:56:48;;;;;;;4.35;3.92;;;2.10;99.90;;;;;;5154467;27;20403;-76
2023/03/12 04:59:14;;;;;;;6.78;3.78;;;1.90;99.90;;;;;;5155162;27;20038;-76
2023/03/12 05:01:40;;;;;;;6.60;4.00;;;1.90;99.90;;;;;;5154436;27;20511;-76
2023/03/12 05:04:06;;;;;;;5.97;4.00;;;1.90;99.90;;;;;;5136119;27;20091;-76
2023/03/12 05:06:32;;;;;;;7.82;4.18;;;1.90;99.90;;;;;;5136199;27;20054;-76
2023/03/12 05:08:58;;;;;;;6.78;4.22;;;2.00;99.90;;;;;;5154336;27;20057;-77
2023/03/12 05:11:24;;;;;;;5.90;4.13;;;2.50;99.90;;;;;;5154306;27;20047;-76
2023/03/12 05:13:50;;;;;;;4.50;3.83;;;2.00;99.90;;;;;;5154176;27;20167;-76
2023/03/12 05:16:17;;;;;;;7.40;4.55;;;2.00;99.90;;;;;;5154624;27;20098;-76
2023/03/12 05:18:43;;;;;;;8.50;5.95;;;2.30;99.90;;;;;;5154153;27;20050;-76
2023/03/12 05:21:15;;;;;;;6.47;4.22;;;2.10;99.90;;;;;;5154128;27;20047;-77
2023/03/12 05:23:41;;;;;;;4.82;3.70;;;2.10;99.90;;;;;;5154087;27;20054;-76
2023/03/12 05:26:30;;;;;;;5.07;4.35;;;2.10;99.90;;;;;;5154727;27;20070;-76
2023/03/12 05:28:57;;;;;;;5.05;3.97;;;2.10;99.90;;;;;;5136334;27;20038;-76
2023/03/12 05:31:23;;;;;;;9.85;4.75;;;2.10;99.90;;;;;;5153983;27;20142;-76
2023/03/12 05:33:49;;;;;;;6.90;3.90;;;2.00;99.90;;;;;;5153959;27;20483;-76
2023/03/12 05:36:15;;;;;;;6.78;4.18;;;2.00;99.90;;;;;;5153960;27;20034;-76
2023/03/12 05:38:41;;;;;;;6.88;4.55;;;2.00;99.90;;;;;;5154553;27;20053;-76
2023/03/12 05:41:08;;;;;;;10.25;4.65;;;2.00;99.90;;;;;;5154109;27;20078;-76
2023/03/12 05:43:34;;;;;;;5.97;4.18;;;1.90;99.90;;;;;;5153818;27;20149;-77
2023/03/12 05:46:04;;;;;;;7.95;4.65;;;2.00;99.90;;;;;;5153874;27;20183;-76
2023/03/12 05:48:30;;;;;;;7.50;4.63;;;1.90;99.90;;;;;;5153784;27;20080;-76
2023/03/12 05:50:56;;;;;;;8.90;4.82;;;1.90;99.90;;;;;;5153648;27;20475;-76
2023/03/12 05:53:23;;;;;;;6.55;4.93;;;1.90;99.90;;;;;;5154135;27;20135;-76
2023/03/12 05:55:49;;;;;;;7.22;5.95;;;1.90;99.90;;;;;;5153562;27;20043;-76
2023/03/12 05:58:15;;;;;;;7.63;5.13;;;1.80;99.90;;;;;;5154174;27;20055;-77
2023/03/12 06:00:41;;;;;;;8.85;5.65;;;2.70;99.90;;;;;;5153675;27;20039;-76
2023/03/12 06:03:07;;;;;;;7.03;5.65;;;1.80;99.90;;;;;;5153329;27;20509;-77
2023/03/12 06:05:34;;;;;;;8.93;5.45;;;1.80;99.90;;;;;;5153590;27;20050;-81
2023/03/12 06:08:00;;;;;;;5.75;5.18;;;1.80;99.90;;;;;;5153671;27;20070;-77
2023/03/12 06:10:26;;;;;;;7.38;4.80;;;2.10;99.90;;;;;;5153609;27;20043;-77
2023/03/12 06:12:52;;;;;;;6.47;5.55;;;2.00;99.90;;;;;;5153494;27;20555;-77
2023/03/12 06:15:18;;;;;;;7.35;5.70;;;1.90;99.90;;;;;;5153863;27;20046;-78
2023/03/12 06:17:44;;;;;;;7.00;6.13;;;2.00;99.90;;;;;;5155037;27;20043;-78
2023/03/12 06:20:10;;;;;;;8.57;7.18;;;2.20;99.90;;;;;;5157447;27;20119;-78
2023/03/12 06:22:36;;;;;;;6.82;5.68;;;2.00;99.90;;;;;;5156875;27;20046;-78
2023/03/12 06:25:02;;;;;;;8.75;5.85;;;2.00;99.90;;;;;;5138386;27;20563;-77
2023/03/12 06:27:28;;;;;;;9.60;6.53;;;2.00;99.90;;;;;;5157280;27;20039;-77
2023/03/12 06:29:54;;;;;;;8.82;5.72;;;2.20;99.90;;;;;;5157251;27;20175;-77
2023/03/12 06:32:19;;;;;;;9.60;6.10;;;2.20;99.90;;;;;;5157118;27;20388;-77
2023/03/12 06:34:45;;;;;;;11.80;6.63;;;2.30;99.90;;;;;;5157129;27;20047;-77
2023/03/12 06:37:11;;;;;;;7.90;6.50;;;2.00;99.90;;;;;;5157023;27;20464;-77
2023/03/12 06:39:37;;;;;;;7.03;6.32;;;2.00;99.90;;;;;;5157068;27;20085;-77
2023/03/12 06:42:03;;;;;;;10.27;6.40;;;2.40;99.90;;;;;;5156619;27;20356;-77
2023/03/12 06:44:29;;;;;;;8.23;6.72;;;2.00;99.90;;;;;;5156851;27;20049;-77
2023/03/12 06:46:55;;;;;;;9.07;6.82;;;2.10;99.90;;;;;;5156767;27;20045;-77
2023/03/12 06:49:21;;;;;;;7.00;6.25;;;2.00;99.90;;;;;;5156444;27;20046;-77
2023/03/12 06:51:47;;;;;;;7.20;6.50;;;2.60;99.90;;;;;;5156822;27;20046;-77
2023/03/12 06:54:12;;;;;;;9.02;6.57;;;2.10;99.90;;;;;;5156444;27;20046;-77
2023/03/12 06:56:38;;;;;;;8.18;6.93;;;2.80;99.90;;;;;;5156233;27;20090;-77
2023/03/12 06:59:04;;;;;;;8.85;6.60;;;2.30;99.90;;;;;;5156579;27;20055;-77
2023/03/12 07:01:30;;;;;;;10.70;6.18;;;2.80;99.90;;;;;;5156164;27;20091;-77
2023/03/12 07:03:55;;;;;;;14.52;7.03;;;2.40;99.90;;;;;;5156094;27;20065;-77
2023/03/12 07:06:22;;;;;;;10.25;7.10;;;2.40;99.90;;;;;;5156122;27;20087;-77
2023/03/12 07:08:48;;;;;;;9.77;7.43;;;2.40;99.90;;;;;;5156196;27;20039;-77
2023/03/12 07:11:14;;;;;;;12.32;6.85;;;2.50;99.90;;;;;;5155822;27;20065;-77
2023/03/12 07:13:40;;;;;;;9.50;7.20;;;2.60;99.90;;;;;;5156005;27;20223;-77
2023/03/12 07:16:07;;;;;;;8.13;6.85;;;2.80;99.90;;;;;;5156414;27;20074;-77
2023/03/12 07:18:33;;;;;;;7.57;6.40;;;2.60;99.90;;;;;;5137244;27;20122;-77
2023/03/12 07:20:58;;;;;;;7.60;6.55;;;2.70;99.90;;;;;;5155733;27;20481;-77
2023/03/12 07:23:25;;;;;;;9.43;6.88;;;2.70;99.90;;;;;;5137246;27;20046;-77
2023/03/12 07:25:51;;;;;;;9.00;6.97;;;2.70;99.90;;;;;;5155569;27;20042;-77
2023/03/12 07:28:17;;;;;;;10.48;7.70;;;2.70;99.90;;;;;;5155375;27;20046;-77
2023/03/12 07:30:49;;;;;;;8.48;7.00;;;2.60;99.90;;;;;;5155412;27;20043;-77
2023/03/12 07:33:16;;;;;;;10.68;7.93;;;2.90;99.90;;;;;;5155594;27;20471;-77
2023/03/12 07:35:41;;;;;;;7.95;7.07;;;2.90;99.90;;;;;;5136804;27;20453;-77
2023/03/12 07:38:08;;;;;;;10.32;7.20;;;2.50;99.90;;;;;;5155361;27;20035;-77
2023/03/12 07:40:35;;;;;;;8.80;7.75;;;2.40;99.90;;;;;;5155173;27;20133;-77
2023/03/12 07:43:01;;;;;;;9.27;8.18;;;2.40;99.90;;;;;;5136978;27;20039;-77
2023/03/12 07:45:27;;;;;;;10.45;8.50;;;2.40;99.90;;;;;;5155858;27;20370;-77
2023/03/12 07:47:52;;;;;;;10.45;7.80;;;2.30;99.90;;;;;;5155623;27;20057;-77
2023/03/12 07:50:19;;;;;;;9.77;7.13;;;2.80;99.90;;;;;;5137186;27;20047;-77
2023/03/12 07:52:46;;;;;;;8.60;7.70;;;2.20;99.90;;;;;;5155421;27;20115;-77
2023/03/12 07:55:11;;;;;;;9.40;8.50;;;2.20;99.90;;;;;;5155328;27;20050;-77
2023/03/12 07:57:37;;;;;;;10.25;8.25;;;2.20;99.90;;;;;;5155186;27;20072;-77
2023/03/12 08:00:06;;;;;;;12.38;8.65;;;2.20;99.90;;;;;;5155225;27;20042;-77
2023/03/12 08:02:33;;;;;;;10.65;8.77;;;2.20;99.90;;;;;;5155081;27;20503;-77
2023/03/12 08:04:59;;;;;;;10.18;8.70;;;2.20;99.90;;;;;;5155144;27;20103;-77
2023/03/12 08:07:24;;;;;;;10.70;8.60;;;2.10;99.90;;;;;;5154978;27;20117;-77
2023/03/12 08:09:50;;;;;;;12.27;8.82;;;2.10;99.90;;;;;;5154768;27;20050;-77
2023/03/12 08:12:16;;;;;;;9.90;8.90;;;2.20;99.90;;;;;;5155105;27;20044;-77
2023/03/12 08:14:41;;;;;;;10.85;8.55;;;2.40;99.90;;;;;;5154965;27;20087;-77
2023/03/12 08:17:07;;;;;;;12.95;8.52;;;2.10;99.90;;;;;;5154703;27;20043;-76
2023/03/12 08:19:33;;;;;;;10.98;8.93;;;2.20;99.90;;;;;;5155120;27;20057;-77
2023/03/12 08:21:58;;;;;;;13.40;8.55;;;2.20;99.90;;;;;;5154807;27;20042;-78
2023/03/12 08:24:24;;;;;;;10.10;9.00;;;2.60;99.90;;;;;;5136285;27;20082;-78
2023/03/12 08:26:50;;;;;;;10.85;9.65;;;3.10;99.90;;;;;;5155268;27;20047;-76
2023/03/12 08:29:16;;;;;;;9.75;8.82;;;2.50;99.90;;;;;;5154623;27;20046;-77
2023/03/12 08:31:42;;;;;;;11.05;9.68;;;2.10;99.90;;;;;;5154813;27;20054;-77
2023/03/12 08:34:08;;;;;;;14.23;9.07;;;2.10;99.90;;;;;;5154702;27;20083;-77
2023/03/12 08:36:36;;;;;;;10.95;9.07;;;2.20;99.90;;;;;;5136125;27;20365;-77
2023/03/12 08:39:02;;;;;;;11.18;9.55;;;2.70;99.90;;;;;;5154721;27;20053;-77
2023/03/12 08:41:29;;;;;;;10.73;8.77;;;2.20;99.90;;;;;;5118537;27;20042;-77
2023/03/12 08:43:54;;;;;;;10.82;9.30;;;2.30;99.90;;;;;;5154543;27;20043;-77
2023/03/12 08:46:20;;;;;;;11.40;8.98;;;2.30;99.90;;;;;;5154328;27;20103;-78
2023/03/12 08:48:46;;;;;;;9.52;8.57;;;2.40;99.90;;;;;;5154340;27;20050;-78
2023/03/12 08:51:12;;;;;;;13.15;8.93;;;3.30;99.90;;;;;;5154591;27;20054;-79
2023/03/12 08:53:37;;;;;;;10.02;8.88;;;2.50;99.90;;;;;;5154235;27;20426;-79
2023/03/12 08:56:04;;;;;;;10.27;9.38;;;2.50;99.90;;;;;;5154619;27;20085;-79
2023/03/12 08:58:29;;;;;;;10.70;9.60;;;2.50;99.90;;;;;;5135716;27;20058;-78
2023/03/12 09:00:56;;;;;;;11.88;9.07;;;2.70;99.90;;;;;;5154005;27;20489;-77
2023/03/12 09:03:22;;;;;;;10.90;9.75;;;2.50;99.90;;;;;;5154460;27;20103;-77
2023/03/12 09:05:50;;;;;;;11.18;9.68;;;2.60;99.90;;;;;;5154027;27;20046;-77
2023/03/12 09:08:16;;;;;;;14.98;9.70;;;3.10;99.90;;;;;;5154001;27;20111;-77
2023/03/12 09:10:47;;;;;;;11.20;9.98;;;2.80;99.90;;;;;;5154035;27;20053;-77
2023/03/12 09:13:13;;;;;;;16.30;10.30;;;2.80;99.90;;;;;;5154157;27;20042;-77
2023/03/12 09:15:39;;;;;;;12.77;10.73;;;2.80;99.90;;;;;;5154041;27;20042;-77
2023/03/12 09:18:04;;;;;;;14.90;10.05;;;2.80;99.90;;;;;;5154119;27;20438;-77
2023/03/12 09:20:31;;;;;;;13.90;11.10;;;2.70;99.90;;;;;;5154044;27;20046;-76
2023/03/12 09:22:56;;;;;;;18.27;11.95;;;2.70;99.90;;;;;;5154418;27;20046;-77
2023/03/12 09:25:22;;;;;;;23.20;11.02;;;2.80;99.90;;;;;;5154057;27;20058;-77
2023/03/12 09:27:48;;;;;;;11.90;9.95;;;2.70;99.90;;;;;;5135653;27;20047;-77
2023/03/12 09:30:19;;;;;;;15.20;11.48;;;2.70;99.90;;;;;;5135201;27;20047;-72
2023/03/12 09:32:46;;;;;;;13.07;10.60;;;2.70;99.90;;;;;;5153980;27;20066;-76
2023/03/12 09:35:14;;;;;;;15.25;10.80;;;2.70;99.90;;;;;;5153832;27;20039;-76
2023/03/12 09:37:39;;;;;;;11.82;10.23;;;2.70;99.90;;;;;;5135735;27;20078;-76
2023/03/12 09:40:06;;;;;;;14.30;10.75;;;2.60;99.90;;;;;;5153996;27;20475;-76
2023/03/12 09:42:48;;;;;;;11.05;9.90;;;2.60;99.90;;;;;;5153707;27;20078;-76
2023/03/12 09:45:26;;;;;;;12.75;11.45;;;3.10;99.90;;;;;;5154174;27;20043;-76
2023/03/12 09:48:01;;;;;;;12.95;10.70;;;2.60;99.90;;;;;;5154031;27;20082;-76
2023/03/12 09:50:42;;;;;;;13.65;12.30;;;2.60;99.90;;;;;;5154269;27;20093;-76
2023/03/12 09:53:15;;;;;;;14.10;11.50;;;2.60;99.90;;;;;;5156492;27;20046;-76
2023/03/12 09:55:44;;;;;;;12.15;10.85;;;2.60;99.90;;;;;;5158082;27;20050;-75
2023/03/12 09:58:15;;;;;;;12.77;10.93;;;2.60;99.90;;;;;;5139318;27;20043;-76
2023/03/12 10:00:40;;;;;;;12.27;10.48;;;2.60;99.90;;;;;;5157317;27;20043;-77
2023/03/12 10:03:27;;;;;;;12.15;10.40;;;2.60;99.90;;;;;;5139248;27;20095;-76
2023/03/12 10:06:21;;;;;;;13.40;10.95;;;2.70;99.90;;;;;;5122221;27;20129;-76
2023/03/12 10:08:57;;;;;;;14.63;12.20;;;2.70;99.90;;;;;;5139423;27;20053;-77
2023/03/12 10:11:35;;;;;;;16.65;12.38;;;2.80;99.90;;;;;;5139460;27;20063;-76
2023/03/12 10:14:56;;;;;;;14.70;11.98;;;2.80;99.90;;;;;;5157715;27;20047;-76
2023/03/12 10:17:40;;;;;;;14.57;12.63;;;2.80;99.90;;;;;;5130596;27;20061;-77
2023/03/12 10:20:51;;;;;;;17.00;15.15;;;2.80;99.90;;;;;;5157238;27;20042;-77
2023/03/12 10:23:24;;;;;;;17.77;15.07;;;2.80;99.90;;;;;;5157296;27;20047;-78
2023/03/12 10:25:57;;;;;;;20.10;16.08;;;2.90;99.90;;;;;;5157609;27;20053;-77
2023/03/12 10:28:41;;;;;;;20.23;16.45;;;2.90;99.90;;;;;;5156795;27;20501;-78
2023/03/12 10:31:25;;;;;;;19.85;17.73;;;2.90;99.90;;;;;;5139031;27;20075;-77
2023/03/12 10:33:58;;;;;;;18.55;16.65;;;3.40;99.90;;;;;;5138994;27;20050;-78
2023/03/12 10:36:27;;;;;;;19.55;16.75;;;2.90;99.90;;;;;;5157210;27;20467;-77
2023/03/12 10:38:53;;;;;;;19.15;17.17;;;2.90;99.90;;;;;;5156851;27;20078;-77
2023/03/12 10:41:24;;;;;;;20.42;18.00;;;3.00;99.90;;;;;;5156844;27;20072;-78
2023/03/12 10:43:50;;;;;;;21.25;16.88;;;3.00;99.90;;;;;;5156625;27;20171;-78
2023/03/12 10:46:45;;;;;;;20.65;18.38;;;3.00;99.90;;;;;;5138249;27;20457;-77
2023/03/12 10:49:20;;;;;;;24.42;20.30;;;3.00;99.90;;;;;;5156982;27;20042;-78
2023/03/12 10:52:10;;;;;;;21.38;19.17;;;3.10;99.90;;;;;;5156670;27;20039;-77
2023/03/12 10:54:39;;;;;;;21.40;19.10;;;3.10;99.90;;;;;;5156740;27;20050;-76
2023/03/12 10:57:06;;;;;;;22.88;18.70;;;3.20;99.90;;;;;;5156857;27;20103;-78
2023/03/12 10:59:35;;;;;;;22.00;19.50;;;3.50;99.90;;;;;;5156519;27;20460;-77
2023/03/12 11:02:21;;;;;;;20.48;18.17;;;3.40;99.90;;;;;;5156702;27;20046;-77
2023/03/12 11:04:50;;;;;;;19.20;17.35;;;3.30;99.90;;;;;;5155703;27;20054;-77
2023/03/12 11:07:31;;;;;;;20.67;18.63;;;3.60;99.90;;;;;;5156553;27;20050;-77
2023/03/12 11:10:06;;;;;;;22.88;18.25;;;3.30;99.90;;;;;;5137973;27;20092;-76
2023/03/12 11:12:34;;;;;;;19.98;16.67;;;3.40;99.90;;;;;;5156190;27;20502;-77
2023/03/12 11:15:22;;;;;;;20.75;17.35;;;3.40;99.90;;;;;;5155862;27;20049;-77
2023/03/12 11:17:48;;;;;;;17.48;15.73;;;3.40;99.90;;;;;;5155746;27;20043;-76
2023/03/12 11:20:24;;;;;;;17.88;15.75;;;3.50;99.90;;;;;;5155537;27;20118;-77
2023/03/12 11:22:50;;;;;;;18.25;16.35;;;3.40;99.90;;;;;;5155620;27;20035;-78
2023/03/12 11:25:26;;;;;;;20.08;17.15;;;3.50;99.90;;;;;;5137936;27;20068;-77
2023/03/12 11:27:58;;;;;;;17.42;15.63;;;3.50;99.90;;;;;;5155973;27;20039;-77
2023/03/12 11:30:32;;;;;;;18.63;16.63;;;3.50;99.90;;;;;;5155841;27;20050;-78
2023/03/12 11:33:00;;;;;;;18.13;16.13;;;3.60;99.90;;;;;;5155704;27;20139;-77
2023/03/12 11:35:55;;;;;;;18.35;14.48;;;3.60;99.90;;;;;;5137793;27;20043;-77
2023/03/12 11:38:32;;;;;;;15.40;13.75;;;3.70;99.90;;;;;;5144074;27;20047;-77
2023/03/12 11:41:36;;;;;;;17.13;15.43;;;3.70;99.90;;;;;;5155397;27;20043;-77
2023/03/12 11:44:16;;;;;;;15.25;13.65;;;3.70;99.90;;;;;;5150354;27;20057;-77
2023/03/12 11:47:13;;;;;;;16.92;14.77;;;3.80;99.90;;;;;;5155455;27;20081;-77
2023/03/12 11:49:57;;;;;;;17.13;15.10;;;3.90;99.90;;;;;;5155479;27;20050;-77
2023/03/12 11:52:35;;;;;;;16.70;14.82;;;4.10;99.90;;;;;;5155023;27;20488;-77
2023/03/12 11:55:18;;;;;;;15.45;13.88;;;4.20;99.90;;;;;;5155358;27;20046;-77
2023/03/12 11:58:11;;;;;;;17.25;14.27;;;4.30;99.90;;;;;;5155485;27;20479;-77
2023/03/12 12:01:05;;;;;;;15.90;12.27;;;4.30;99.90;;;;;;5155197;27;20066;-77
2023/03/12 12:03:42;;;;;;;14.07;12.13;;;4.30;99.90;;;;;;5145332;27;20291;-78
2023/03/12 12:06:30;;;;;;;13.07;11.77;;;4.40;99.90;;;;;;5155064;27;20038;-77
2023/03/12 12:09:23;;;;;;;17.48;13.18;;;4.40;99.90;;;;;;5154804;27;20498;-78
2023/03/12 12:12:27;;;;;;;17.90;12.10;;;4.50;99.90;;;;;;5155026;27;20482;-77
2023/03/12 12:14:53;;;;;;;;;;;4.50;99.90;;;;;;5097833;27;20079;-78
2023/03/12 12:17:37;;;;;;;14.00;11.75;;;4.50;99.90;;;;;;5120002;27;19919;-77
2023/03/12 12:20:25;;;;;;;15.75;11.57;;;4.60;99.90;;;;;;5154713;27;20082;-78
2023/03/12 12:23:37;;;;;;;10.80;9.70;;;4.70;99.90;;;;;;5154595;27;20039;-77
2023/03/12 12:26:09;;;;;;;13.48;9.68;;;4.70;99.90;;;;;;5154392;27;20046;-77
2023/03/12 12:28:59;;;;;;;11.23;10.05;;;4.80;99.90;;;;;;5155313;27;20038;-77
2023/03/12 12:31:55;;;;;;;11.77;10.48;;;4.90;99.90;;;;;;5155057;27;20092;-78
2023/03/12 12:34:24;;;;;;;11.75;9.88;;;5.00;99.90;;;;;;5133226;27;20134;-77
2023/03/12 12:37:15;;;;;;;11.73;9.48;;;5.10;99.90;;;;;;5154959;27;20117;-76
2023/03/12 12:40:14;;;;;;;11.13;10.02;;;5.20;99.90;;;;;;5154605;27;20524;-76
2023/03/12 12:43:14;;;;;;;10.02;9.02;;;5.30;99.90;;;;;;5149615;27;20151;-76
2023/03/12 12:45:43;;;;;;;10.68;9.50;;;5.40;99.90;;;;;;5122165;27;20047;-76
2023/03/12 12:48:17;;;;;;;10.02;9.02;;;5.30;99.90;;;;;;5154685;27;20078;-76
2023/03/12 12:50:46;;;;;;;12.07;9.75;;;5.50;99.90;;;;;;5154665;27;20052;-76
2023/03/12 12:53:31;;;;;;;11.63;9.73;;;5.50;99.90;;;;;;5154302;27;20050;-78
2023/03/12 12:56:19;;;;;;;14.80;10.45;;;5.60;99.90;;;;;;5154528;27;20160;-77
2023/03/12 12:59:08;;;;;;;11.52;9.55;;;5.70;99.90;;;;;;5154201;27;20051;-78
2023/03/12 13:01:35;;;;;;;11.50;9.77;;;5.90;99.90;;;;;;5154570;27;20058;-77
2023/03/12 13:04:11;;;;;;;11.98;10.27;;;6.00;99.90;;;;;;5153674;27;20527;-76
2023/03/12 13:06:53;;;;;;;12.18;8.90;;;6.00;99.90;;;;;;5136294;27;20175;-77